Flight Track Log - Related Links

Times and Time Zones

All times are in EDT time to prevent confusion due to time zone crossing. See the SKW7439 flight status page for this flight to view local times or setup timezone preferences in your user account.

Time Position Orientation Groundspeed Altitude Reporting Facility
EDT Latitude Longitude Course Direction KTS MPH feet Rate Location/Type
Sat 08:36:49 PM 44.5961 -108.9672 18° North 206 237 8,600  Level Salt Lake Center
Sat 08:37:00 PM 44.2928 -109.2162 211° Southwest  Level Estimated
Sat 08:37:51 PM 44.6336 -109.0272 311° West 233 268 11,200  Level Salt Lake Center
Sat 08:38:00 PM 44.2169 -109.2800 211° Southwest  Level Estimated
Sat 08:38:52 PM 44.5864 -109.0978 227° Southwest 250 288 13,100  Level Salt Lake Center
Sat 08:39:00 PM 44.1410 -109.3437 211° Southwest  Level Estimated
Sat 08:39:53 PM 44.5208 -109.1706 218° Southwest 290 334 14,900  Level Salt Lake Center
Sat 08:40:00 PM 44.0650 -109.4072 211° Southwest  Level Estimated
Sat 08:40:55 PM 44.4519 -109.2464 218° Southwest 308 354 16,700  Level Salt Lake Center
Sat 08:41:00 PM 43.9890 -109.4705 211° Southwest  Level Estimated
Sat 08:41:56 PM 44.3797 -109.3264 218° Southwest 325 374 18,500  Level Salt Lake Center
Sat 08:42:58 PM 44.3003 -109.3961 212° Southwest 338 389 20,400 1,659 Climbing Salt Lake Center
Sat 08:43:59 PM 44.2067 -109.4372 197° South 349 402 21,900 1,525 Climbing Salt Lake Center
Sat 08:45:00 PM 44.1011 -109.4833 197° South 366 421 23,500 1,024 Climbing Salt Lake Center
Sat 08:46:02 PM 43.9850 -109.5267 195° South 384 442 24,000 244 Climbing Salt Lake Center
Sat 08:47:03 PM 43.8817 -109.5667 196° South 397 457 24,000 98 Level Salt Lake Center
Sat 08:48:04 PM 43.7622 -109.6119 195° South 399 459 24,200 878 Climbing Salt Lake Center
Sat 08:49:06 PM 43.6819 -109.6986 218° Southwest 386 444 25,800 1,366 Climbing Salt Lake Center
Sat 08:50:07 PM 43.6078 -109.7914 222° Southwest 377 434 27,000 1,279 Climbing Salt Lake Center
Sat 08:51:08 PM 43.5197 -109.9011 222° Southwest 379 436 28,400 1,171 Climbing Salt Lake Center
Sat 08:52:10 PM 43.4464 -109.9956 223° Southwest 383 441 29,400 780 Climbing Salt Lake Center
Sat 08:53:11 PM 43.3572 -110.1061 222° Southwest 388 447 30,000 295 Climbing Salt Lake Center
Sat 08:54:12 PM 43.2792 -110.2047 223° Southwest 396 456 30,000  Level Salt Lake Center
Sat 08:55:13 PM 43.1978 -110.3100 223° Southwest 406 467 30,000  Level Salt Lake Center
Sat 08:56:15 PM 43.1064 -110.4233 222° Southwest 399 459 30,000  Level Salt Lake Center
Sat 08:57:16 PM 43.0292 -110.5194 222° Southwest 394 453 30,000  Level Salt Lake Center
Sat 08:58:17 PM 42.9517 -110.6153 222° Southwest 394 453 30,000  Level Salt Lake Center
Sat 08:59:18 PM 42.8611 -110.7253 222° Southwest 391 450 30,000  Level Salt Lake Center
Sat 09:00:19 PM 42.7825 -110.8231 222° Southwest 397 457 30,000  Level Salt Lake Center
Sat 09:01:20 PM 42.6950 -110.9289 222° Southwest 394 453 30,000  Level Salt Lake Center
Sat 09:02:21 PM 42.6167 -111.0242 222° Southwest 393 452 30,000  Level Salt Lake Center
Sat 09:03:23 PM 42.5361 -111.1222 222° Southwest 392 451 30,000  Level Salt Lake Center
Sat 09:04:24 PM 42.4547 -111.2217 222° Southwest 394 453 30,000  Level Salt Lake Center
Sat 09:05:25 PM 42.3706 -111.3192 221° Southwest 398 458 30,000  Level Salt Lake Center
Sat 09:06:26 PM 42.2772 -111.4000 213° Southwest 400 460 30,000  Level Salt Lake Center
Sat 09:07:27 PM 42.1844 -111.4847 214° Southwest 403 464 30,000  Level Salt Lake Center
Sat 09:08:28 PM 42.0731 -111.5864 214° Southwest 404 465 30,000 -934 Level Salt Lake Center
Sat 09:09:29 PM 41.9783 -111.6711 214° Southwest 409 471 28,100 -1,902 Descending Salt Lake Center
Sat 09:10:31 PM 41.8861 -111.7547 214° Southwest 403 464 26,100 -1,951 Descending Salt Lake Center
Sat 09:11:32 PM 41.7942 -111.8364 214° Southwest 400 460 24,100 -1,967 Descending Salt Lake Center
Sat 09:12:33 PM 41.7036 -111.9167 214° Southwest 393 452 22,100 -2,059 Descending Salt Lake Center
Sat 09:13:14 PM 41.6378 -111.9686 211° Southwest 389 448 20,600 -1,824 Descending Salt Lake Center
Sat 09:14:15 PM 41.5475 -112.0367 209° Southwest 382 440 19,000 -1,397 Descending Salt Lake Center
Sat 09:15:10 PM 41.4472 -112.0625 191° South 397 457 17,900 -1,328 Descending Salt Lake Center
Sat 09:16:17 PM 41.3233 -112.0906 190° South 392 451 16,300 -1,388 Descending Salt Lake Center
Sat 09:17:11 PM 41.2369 -112.1114 190° South 382 440 15,100 -1,200 Descending Salt Lake Center
Sat 09:18:12 PM 41.1275 -112.1344 189° South 370 426 14,000 -1,243 Descending Salt Lake Center
Sat 09:19:31 PM 40.9975 -112.1303 179° South 360 414 12,200 -1,409 Descending Salt Lake Center
Sat 09:20:07 PM 40.9394 -112.1186 171° South 352 405 11,300 -1,014 Descending Salt Lake Center
Sat 09:20:42 PM 40.8939 -112.1078 170° South 341 392 11,000 -188 Descending Salt Lake Center
Sat 09:21:43 PM 40.8044 -112.0983 175° South 321 369 11,000 -242 Level Salt Lake Center
Sat 09:22:21 PM 40.7517 -112.0942 177° South 256 295 10,600 -1,744 Descending Salt Lake Center
Sat 09:23:09 PM 40.7061 -112.0814 168° South 199 229 8,500 -2,625 Descending Salt Lake Center

Login

Don't have an account? Register now (free) for customized features, flight alerts, and more!